Time;durP1;ratioP1;P1;durP2;ratioP2;P2;SDS_P1;SDS_P2;PMS_P1;PMS_P2;Temp;Humidity;BMP_temperature;BMP_pressure;BME280_temperature;BME280_humidity;BME280_pressure;Samples;Min_cycle;Max_cycle;Signal;HPM_P1;HPM_P2
2022/05/11 00:00:36;;;;;;;;;;;;;;;10.73;57.43;99370.75;4899835;29;2198;-95
2022/05/11 00:03:02;;;;;;;;;;;;;;;10.71;57.57;99367.47;4900356;29;4753;-94
2022/05/11 00:05:29;;;;;;;;;;;;;;;10.73;57.48;99365.34;4896979;29;2511;-95
2022/05/11 00:07:55;;;;;;;;;;;;;;;10.69;57.61;99371.25;4901407;29;2483;-95
2022/05/11 00:10:22;;;;;;;;;;;;;;;10.68;57.52;99374.19;4900546;29;2281;-95
2022/05/11 00:12:48;;;;;;;;;;;;;;;10.66;57.45;99374.44;4899115;29;4726;-94
2022/05/11 00:15:15;;;;;;;;;;;;;;;10.65;57.51;99375.50;4899561;29;4217;-95
2022/05/11 00:17:41;;;;;;;;;;;;;;;10.64;57.66;99375.72;4918946;29;2132;-94
2022/05/11 00:20:08;;;;;;;;;;;;;;;10.65;57.54;99372.81;4902367;29;1958;-95
2022/05/11 00:22:34;;;;;;;;;;;;;;;10.64;57.35;99379.25;4899963;29;2727;-94
2022/05/11 00:25:01;;;;;;;;;;;;;;;10.62;57.61;99367.91;4912603;29;5073;-95
2022/05/11 00:27:27;;;;;;;;;;;;;;;10.63;57.49;99382.19;4918318;29;1978;-94
2022/05/11 00:29:54;;;;;;;;;;;;;;;10.61;57.54;99378.94;4898457;29;4762;-95
2022/05/11 00:32:21;;;;;;;;;;;;;;;10.60;57.62;99372.72;4913513;29;1412;-94
2022/05/11 00:34:47;;;;;;;;;;;;;;;10.59;57.64;99370.28;4902735;29;2899;-94
2022/05/11 00:37:14;;;;;;;;;;;;;;;10.59;57.49;99373.81;4897002;29;1980;-95
2022/05/11 00:39:40;;;;;;;;;;;;;;;10.59;57.57;99372.97;4898172;29;3241;-95
2022/05/11 00:42:07;;;;;;;;;;;;;;;10.58;57.62;99374.84;4901613;29;2161;-93
2022/05/11 00:44:33;;;;;;;;;;;;;;;10.57;57.47;99378.63;4901868;29;2806;-94
2022/05/11 00:47:00;;;;;;;;;;;;;;;10.57;57.56;99377.81;4896062;29;1480;-94
2022/05/11 00:49:35;;;;;;;;;;;;;;;10.57;57.46;99386.69;4900485;29;4460;-94
2022/05/11 00:52:01;;;;;;;;;;;;;;;10.56;57.42;99378.84;4900919;29;2113;-94
2022/05/11 00:54:28;;;;;;;;;;;;;;;10.55;57.43;99380.72;4901793;29;2157;-94
2022/05/11 00:56:54;;;;;;;;;;;;;;;10.54;57.42;99378.31;4901810;29;1581;-94
2022/05/11 00:59:21;;;;;;;;;;;;;;;10.53;57.35;99384.72;4897332;29;2280;-95
2022/05/11 01:01:47;;;;;;;;;;;;;;;10.52;57.46;99391.19;4894411;29;2412;-95
2022/05/11 01:04:14;;;;;;;;;;;;;;;10.52;57.42;99383.09;4906849;29;5006;-94
2022/05/11 01:06:41;;;;;;;;;;;;;;;10.51;57.50;99389.56;4896033;29;2454;-95
2022/05/11 01:09:07;;;;;;;;;;;;;;;10.51;57.57;99378.81;4914551;29;2035;-95
2022/05/11 01:11:34;;;;;;;;;;;;;;;10.49;57.60;99376.34;4898405;29;2432;-94
2022/05/11 01:14:00;;;;;;;;;;;;;;;10.51;57.49;99381.50;4888626;29;4182;-95
2022/05/11 01:16:27;;;;;;;;;;;;;;;10.48;57.60;99380.09;4898966;29;2103;-94
2022/05/11 01:18:53;;;;;;;;;;;;;;;10.47;57.53;99378.47;4895382;29;2008;-95
2022/05/11 01:21:21;;;;;;;;;;;;;;;10.46;57.64;99383.03;4903157;29;2221;-95
2022/05/11 01:23:48;;;;;;;;;;;;;;;10.45;57.76;99381.41;4895287;29;4580;-96
2022/05/11 01:26:15;;;;;;;;;;;;;;;10.45;57.60;99386.78;4916815;29;2028;-95
2022/05/11 01:28:42;;;;;;;;;;;;;;;10.46;57.54;99387.59;4912453;29;5077;-95
2022/05/11 01:31:09;;;;;;;;;;;;;;;10.44;57.70;99389.72;4901258;29;4050;-95
2022/05/11 01:33:35;;;;;;;;;;;;;;;10.43;57.54;99383.53;4904258;29;2556;-95
2022/05/11 01:36:02;;;;;;;;;;;;;;;10.43;57.67;99380.03;4900203;29;2932;-95
2022/05/11 01:38:28;;;;;;;;;;;;;;;10.41;57.69;99374.91;4914480;29;4864;-95
2022/05/11 01:40:55;;;;;;;;;;;;;;;10.41;57.63;99372.22;4901676;29;1282;-95
2022/05/11 01:43:21;;;;;;;;;;;;;;;10.40;57.78;99365.19;4910804;29;2029;-95
2022/05/11 01:45:48;;;;;;;;;;;;;;;10.41;57.62;99372.22;4916353;29;2069;-95
2022/05/11 01:48:14;;;;;;;;;;;;;;;10.41;57.70;99366.00;4895904;29;4888;-95
2022/05/11 01:50:41;;;;;;;;;;;;;;;10.39;57.75;99373.50;4898658;29;2104;-94
2022/05/11 01:53:07;;;;;;;;;;;;;;;10.40;57.60;99375.13;4915570;29;2136;-94
2022/05/11 01:55:34;;;;;;;;;;;;;;;10.39;57.73;99379.72;4917142;29;3515;-94
2022/05/11 01:58:00;;;;;;;;;;;;;;;10.39;57.78;99378.91;4897839;29;2572;-95
2022/05/11 02:00:27;;;;;;;;;;;;;;;10.38;57.80;99370.00;4898935;29;2057;-95
2022/05/11 02:02:56;;;;;;;;;;;;;;;10.38;57.68;99374.56;4896621;29;5007;-94
2022/05/11 02:08:08;;;;;;;;;;;;;;;10.35;57.69;99366.97;4910877;29;2210;-94
2022/05/11 02:10:35;;;;;;;;;;;;;;;10.35;57.69;99361.59;4899857;29;1426;-94
2022/05/11 02:13:01;;;;;;;;;;;;;;;10.35;57.64;99361.59;4897198;29;4620;-95
2022/05/11 02:15:28;;;;;;;;;;;;;;;10.35;57.64;99354.34;4914894;29;2048;-94
2022/05/11 02:17:54;;;;;;;;;;;;;;;10.33;57.71;99369.13;4896959;29;2014;-94
2022/05/11 02:20:21;;;;;;;;;;;;;;;10.32;57.53;99365.59;4902832;29;1337;-94
2022/05/11 02:22:48;;;;;;;;;;;;;;;10.33;57.71;99375.31;4905527;29;1713;-94
2022/05/11 02:25:15;;;;;;;;;;;;;;;10.33;57.57;99374.50;4903751;29;2816;-94
2022/05/11 02:27:42;;;;;;;;;;;;;;;10.31;57.72;99374.75;4902413;29;3059;-94
2022/05/11 02:30:08;;;;;;;;;;;;;;;10.31;57.81;99355.91;4902704;29;2091;-95
2022/05/11 02:32:35;;;;;;;;;;;;;;;10.30;57.56;99364.22;4898622;29;2015;-95
2022/05/11 02:35:14;;;;;;;;;;;;;;;10.28;57.81;99377.91;4902413;29;2114;-94
2022/05/11 02:37:40;;;;;;;;;;;;;;;10.30;57.79;99380.38;4914296;29;2474;-94
2022/05/11 02:40:07;;;;;;;;;;;;;;;10.29;57.66;99378.72;4890965;29;4967;-94
2022/05/11 02:42:33;;;;;;;;;;;;;;;10.28;57.60;99377.09;4903726;29;1734;-95
2022/05/11 02:45:00;;;;;;;;;;;;;;;10.28;57.69;99387.88;4921089;29;1523;-95
2022/05/11 02:47:26;;;;;;;;;;;;;;;10.28;57.60;99386.00;4904110;29;2062;-95
2022/05/11 02:49:53;;;;;;;;;;;;;;;10.28;57.65;99390.56;4900422;29;2335;-94
2022/05/11 02:52:19;;;;;;;;;;;;;;;10.27;57.59;99384.38;4913969;29;2172;-95
2022/05/11 02:54:48;;;;;;;;;;;;;;;10.26;57.78;99384.56;4899300;29;5005;-95
2022/05/11 02:57:15;;;;;;;;;;;;;;;10.25;57.52;99373.00;4903386;29;2016;-95
2022/05/11 02:59:41;;;;;;;;;;;;;;;10.24;57.63;99371.38;4910733;29;1689;-95
2022/05/11 03:02:08;;;;;;;;;;;;;;;10.24;57.70;99374.06;4917387;29;1961;-95
2022/05/11 03:04:34;;;;;;;;;;;;;;;10.22;57.69;99374.31;4900986;29;2284;-94
2022/05/11 03:07:01;;;;;;;;;;;;;;;10.22;57.53;99371.63;4903615;29;1650;-95
2022/05/11 03:09:27;;;;;;;;;;;;;;;10.21;57.49;99370.00;4899412;29;4746;-95
2022/05/11 03:11:54;;;;;;;;;;;;;;;10.21;57.63;99370.00;4903390;29;1974;-94
2022/05/11 03:14:20;;;;;;;;;;;;;;;10.20;57.52;99368.34;4899860;29;2247;-94
2022/05/11 03:16:47;;;;;;;;;;;;;;;10.19;57.59;99371.28;4903356;29;2174;-94
2022/05/11 03:19:13;;;;;;;;;;;;;;;10.18;57.66;99353.53;4901054;29;4970;-93
2022/05/11 03:21:40;;;;;;;;;;;;;;;10.18;57.72;99364.28;4903374;29;2106;-95
2022/05/11 03:24:07;;;;;;;;;;;;;;;10.17;57.75;99368.84;4913176;29;2107;-94
2022/05/11 03:26:34;;;;;;;;;;;;;;;10.17;57.67;99370.72;4902945;29;2026;-94
2022/05/11 03:29:00;;;;;;;;;;;;;;;10.17;57.62;99370.72;4899074;29;4516;-94
2022/05/11 03:31:27;;;;;;;;;;;;;;;10.16;57.63;99374.47;4903931;29;4014;-94
2022/05/11 03:36:37;;;;;;;;;;;;;;;10.15;57.65;99378.25;4902933;29;2189;-94
2022/05/11 03:39:04;;;;;;;;;;;;;;;10.15;57.57;99372.88;4913981;29;4996;-94
2022/05/11 03:41:30;;;;;;;;;;;;;;;10.14;57.60;99373.91;4902683;29;2143;-95
2022/05/11 03:43:57;;;;;;;;;;;;;;;10.14;57.67;99369.31;4904526;29;2383;-94
2022/05/11 03:46:23;;;;;;;;;;;;;;;10.13;57.59;99378.47;4902634;29;1991;-95
2022/05/11 03:48:50;;;;;;;;;;;;;;;10.11;57.56;99364.44;4903203;29;2426;-94
2022/05/11 03:51:16;;;;;;;;;;;;;;;10.11;57.56;99367.13;4902473;29;2358;-95
2022/05/11 03:53:43;;;;;;;;;;;;;;;10.11;57.40;99369.81;4908897;29;3729;-94
2022/05/11 03:56:09;;;;;;;;;;;;;;;10.12;57.36;99365.28;4900387;29;2066;-94
2022/05/11 03:58:36;;;;;;;;;;;;;;;10.12;57.47;99370.66;4904344;29;2366;-94
2022/05/11 04:01:02;;;;;;;;;;;;;;;10.11;57.37;99369.00;4915740;29;1997;-94
2022/05/11 04:03:29;;;;;;;;;;;;;;;10.10;57.57;99376.28;4898753;29;2677;-94
2022/05/11 04:05:56;;;;;;;;;;;;;;;10.09;57.47;99368.44;4901159;29;2087;-94
2022/05/11 04:08:22;;;;;;;;;;;;;;;10.09;57.36;99376.50;4898900;29;4938;-94
2022/05/11 04:10:49;;;;;;;;;;;;;;;10.08;57.42;99381.06;4901380;29;3855;-94
2022/05/11 04:13:15;;;;;;;;;;;;;;;10.08;57.44;99375.69;4902571;29;2391;-94
2022/05/11 04:15:42;;;;;;;;;;;;;;;10.07;57.46;99357.94;4901147;29;2133;-95
2022/05/11 04:18:08;;;;;;;;;;;;;;;10.07;57.32;99379.44;4900159;29;2291;-94
2022/05/11 04:20:35;;;;;;;;;;;;;;;10.07;57.38;99375.94;4901109;29;2221;-94
2022/05/11 04:23:01;;;;;;;;;;;;;;;10.07;57.35;99365.19;4901647;29;2357;-94
2022/05/11 04:25:28;;;;;;;;;;;;;;;10.06;57.50;99361.69;4895662;29;2043;-96
2022/05/11 04:27:54;;;;;;;;;;;;;;;10.05;57.45;99370.00;4898459;29;2387;-94
2022/05/11 04:30:22;;;;;;;;;;;;;;;10.03;57.51;99372.94;4894599;29;2368;-94
2022/05/11 04:32:49;;;;;;;;;;;;;;;10.06;57.35;99371.63;4898852;29;4192;-94
2022/05/11 04:35:15;;;;;;;;;;;;;;;10.04;57.47;99353.03;4900633;29;3817;-94
2022/05/11 04:37:42;;;;;;;;;;;;;;;10.05;57.45;99367.31;4918100;29;2410;-94
2022/05/11 04:40:11;;;;;;;;;;;;;;;10.05;57.46;99367.31;4909824;29;2124;-94
2022/05/11 04:42:37;;;;;;;;;;;;;;;10.02;57.31;99364.03;4901047;29;2145;-94
2022/05/11 04:45:04;;;;;;;;;;;;;;;10.02;57.43;99358.66;4907716;29;2489;-94
2022/05/11 04:47:31;;;;;;;;;;;;;;;10.01;57.33;99358.91;4896240;29;4434;-94
2022/05/11 04:49:57;;;;;;;;;;;;;;;10.01;57.26;99364.28;4904475;29;1183;-95
2022/05/11 04:52:24;;;;;;;;;;;;;;;10.01;57.43;99365.09;4903917;29;2740;-94
2022/05/11 04:54:50;;;;;;;;;;;;;;;10.02;57.30;99365.91;4909512;29;1978;-94
2022/05/11 04:57:17;;;;;;;;;;;;;;;10.00;57.35;99371.56;4899553;29;2751;-94
2022/05/11 04:59:46;;;;;;;;;;;;;;;10.00;57.45;99371.56;4899936;29;3891;-93
2022/05/11 05:02:13;;;;;;;;;;;;;;;10.00;57.48;99378.81;4904669;29;1951;-94
2022/05/11 05:04:39;;;;;;;;;;;;;;;9.99;57.51;99374.47;4920550;29;2229;-94
2022/05/11 05:07:06;;;;;;;;;;;;;;;9.99;57.32;99369.91;4900916;29;1498;-94
2022/05/11 05:09:32;;;;;;;;;;;;;;;9.98;57.24;99365.59;4899313;29;2267;-95
2022/05/11 05:12:01;;;;;;;;;;;;;;;9.97;57.30;99358.59;4902432;29;1297;-94
2022/05/11 05:14:27;;;;;;;;;;;;;;;9.97;57.47;99357.75;4912854;29;4263;-91
2022/05/11 05:16:56;;;;;;;;;;;;;;;9.98;57.33;99370.97;4909487;29;2253;-95
2022/05/11 05:19:22;;;;;;;;;;;;;;;9.97;57.45;99345.16;4900453;29;1778;-94
2022/05/11 05:21:49;;;;;;;;;;;;;;;9.97;57.33;99337.06;4898319;29;2363;-94
2022/05/11 05:24:16;;;;;;;;;;;;;;;9.97;57.29;99328.16;4896258;29;2227;-93
2022/05/11 05:26:42;;;;;;;;;;;;;;;9.95;57.36;99333.81;4901229;29;1553;-95
2022/05/11 05:31:53;;;;;;;;;;;;;;;9.95;57.28;99336.50;4917063;29;1002;-94
2022/05/11 05:34:19;;;;;;;;;;;;;;;9.94;57.36;99340.25;4906178;29;2739;-93
2022/05/11 05:36:46;;;;;;;;;;;;;;;9.95;57.24;99338.38;4900728;29;1986;-94
2022/05/11 05:39:12;;;;;;;;;;;;;;;9.96;57.15;99345.38;4895254;29;2176;-93
2022/05/11 05:41:39;;;;;;;;;;;;;;;9.95;57.23;99341.88;4904147;29;1991;-93
2022/05/11 05:44:06;;;;;;;;;;;;;;;9.92;57.29;99334.31;4893696;29;4063;-93
2022/05/11 05:46:33;;;;;;;;;;;;;;;9.94;57.43;99350.19;4900366;29;1434;-93
2022/05/11 05:49:00;;;;;;;;;;;;;;;9.93;57.37;99346.69;4898961;29;1968;-96
2022/05/11 05:51:27;;;;;;;;;;;;;;;9.93;57.51;99340.50;4907571;29;2082;-96
2022/05/11 05:53:53;;;;;;;;;;;;;;;9.92;57.38;99341.56;4906015;29;2507;-96
2022/05/11 05:56:20;;;;;;;;;;;;;;;9.93;57.34;99345.88;4907942;29;2174;-96
2022/05/11 05:58:46;;;;;;;;;;;;;;;9.93;57.34;99337.81;4904622;29;5114;-96
2022/05/11 06:01:13;;;;;;;;;;;;;;;9.91;57.39;99330.00;4903418;29;1966;-96
2022/05/11 06:03:39;;;;;;;;;;;;;;;9.91;57.54;99326.47;4898298;29;2173;-96
2022/05/11 06:06:07;;;;;;;;;;;;;;;9.91;57.46;99316.53;4917963;29;2349;-94
2022/05/11 06:08:33;;;;;;;;;;;;;;;9.91;57.48;99327.31;4913203;29;4857;-95
2022/05/11 06:11:00;;;;;;;;;;;;;;;9.90;57.29;99320.28;4903536;29;2262;-93
2022/05/11 06:13:27;;;;;;;;;;;;;;;9.93;57.26;99329.72;4904283;29;1542;-94
2022/05/11 06:15:53;;;;;;;;;;;;;;;9.91;57.49;99321.09;4903764;29;1911;-93
2022/05/11 06:18:20;;;;;;;;;;;;;;;9.92;57.30;99326.22;4899527;29;4766;-94
2022/05/11 06:20:51;;;;;;;;;;;;;;;9.92;57.38;99320.03;4912915;29;1612;-93
2022/05/11 06:23:17;;;;;;;;;;;;;;;9.91;57.37;99310.31;4909178;29;2338;-93
2022/05/11 06:25:44;;;;;;;;;;;;;;;9.91;57.49;99323.78;4904612;29;1317;-93
2022/05/11 06:28:10;;;;;;;;;;;;;;;9.91;57.41;99316.53;4917346;29;5046;-95
2022/05/11 06:30:37;;;;;;;;;;;;;;;9.91;57.45;99305.78;4907301;29;4918;-94
2022/05/11 06:33:04;;;;;;;;;;;;;;;9.90;57.55;99306.03;4908222;29;2201;-93
2022/05/11 06:35:31;;;;;;;;;;;;;;;9.91;57.53;99304.94;4904864;29;1982;-94
2022/05/11 06:37:57;;;;;;;;;;;;;;;9.90;57.49;99300.63;4902233;29;4317;-94
2022/05/11 06:40:24;;;;;;;;;;;;;;;9.94;57.55;99301.75;4901859;29;4673;-93
2022/05/11 06:42:50;;;;;;;;;;;;;;;9.96;57.53;99299.66;4902884;29;2418;-94
2022/05/11 06:45:17;;;;;;;;;;;;;;;9.94;57.57;99296.38;4920339;29;1186;-94
2022/05/11 06:47:43;;;;;;;;;;;;;;;9.94;57.60;99305.28;4921529;29;1226;-94
2022/05/11 06:50:11;;;;;;;;;;;;;;;9.95;57.40;99296.16;4925885;29;2538;-94
2022/05/11 06:52:38;;;;;;;;;;;;;;;9.94;57.66;99305.28;4903670;29;2410;-94
2022/05/11 07:00:33;;;;;;;;;;;;;;;9.92;57.84;99310.09;4902750;29;1773;-94
2022/05/11 07:03:00;;;;;;;;;;;;;;;9.92;57.79;99304.72;4890215;29;1653;-93
2022/05/11 07:05:26;;;;;;;;;;;;;;;9.93;58.05;99313.59;4905507;29;1183;-94
2022/05/11 07:07:53;;;;;;;;;;;;;;;9.92;57.78;99309.28;4918198;29;2438;-94
2022/05/11 07:10:19;;;;;;;;;;;;;;;9.92;57.82;99320.84;4919011;29;5319;-94
2022/05/11 07:12:47;;;;;;;;;;;;;;;9.91;58.10;99303.09;4920093;29;2146;-94
2022/05/11 07:15:13;;;;;;;;;;;;;;;9.91;58.07;99303.09;4916290;29;1976;-94
2022/05/11 07:17:39;;;;;;;;;;;;;;;9.91;58.25;99292.34;4922092;29;2659;-94
2022/05/11 07:20:06;;;;;;;;;;;;;;;9.92;58.46;99302.03;4923554;29;2355;-93
2022/05/11 07:22:33;;;;;;;;;;;;;;;9.94;58.30;99297.22;4906777;29;2286;-93
2022/05/11 07:24:59;;;;;;;;;;;;;;;9.92;58.35;99291.25;4899756;29;4867;-94
2022/05/11 07:27:26;;;;;;;;;;;;;;;9.94;58.44;99296.38;4904191;29;1284;-93
2022/05/11 07:29:53;;;;;;;;;;;;;;;9.95;58.35;99295.34;4921105;29;2092;-94
2022/05/11 07:32:20;;;;;;;;;;;;;;;9.94;58.42;99291.84;4903244;29;2543;-94
2022/05/11 07:34:46;;;;;;;;;;;;;;;9.93;58.41;99295.56;4907764;29;2200;-96
2022/05/11 07:37:13;;;;;;;;;;;;;;;9.94;58.43;99280.25;4903693;29;2215;-96
2022/05/11 07:39:39;;;;;;;;;;;;;;;9.95;58.49;99284.59;4900987;29;4988;-96
2022/05/11 07:42:06;;;;;;;;;;;;;;;9.94;58.54;99281.09;4903887;29;2394;-96
2022/05/11 07:44:32;;;;;;;;;;;;;;;9.96;58.68;99286.19;4902421;29;2371;-96
2022/05/11 07:46:59;;;;;;;;;;;;;;;9.94;58.58;99285.63;4903573;29;2424;-96
2022/05/11 07:49:25;;;;;;;;;;;;;;;9.97;58.42;99277.06;4901007;29;2251;-96
2022/05/11 07:51:52;;;;;;;;;;;;;;;9.96;58.40;99278.13;4903026;29;2217;-96
2022/05/11 07:54:19;;;;;;;;;;;;;;;9.97;58.42;99277.91;4900422;29;4176;-96
2022/05/11 08:02:14;;;;;;;;;;;;;;;9.98;58.53;99249.13;4905847;29;2218;-96
2022/05/11 08:04:41;;;;;;;;;;;;;;;9.98;58.49;99251.81;4908825;29;2764;-96
2022/05/11 08:07:08;;;;;;;;;;;;;;;10.01;58.26;99262.06;4908172;29;1955;-96
2022/05/11 08:09:34;;;;;;;;;;;;;;;9.99;58.50;99270.38;4897612;29;4584;-96
2022/05/11 08:12:01;;;;;;;;;;;;;;;9.98;58.69;99267.97;4908083;29;2054;-96
2022/05/11 08:14:27;;;;;;;;;;;;;;;10.00;58.57;99276.59;4907347;29;2157;-96
2022/05/11 08:16:54;;;;;;;;;;;;;;;10.00;58.68;99271.22;4904623;29;2046;-96
2022/05/11 08:19:21;;;;;;;;;;;;;;;9.99;58.53;99261.50;4898082;29;2255;-96
2022/05/11 08:21:48;;;;;;;;;;;;;;;10.01;58.71;99251.31;4907295;29;1465;-96
2022/05/11 08:24:15;;;;;;;;;;;;;;;10.01;58.59;99245.94;4904110;29;2387;-96
2022/05/11 08:26:42;;;;;;;;;;;;;;;10.02;58.86;99255.63;4901439;29;2137;-96
2022/05/11 08:29:08;;;;;;;;;;;;;;;10.03;58.42;99259.97;4904901;29;1974;-96
2022/05/11 08:34:19;;;;;;;;;;;;;;;10.02;58.61;99253.75;4903912;29;2367;-96
2022/05/11 08:36:48;;;;;;;;;;;;;;;10.04;58.79;99255.41;4909305;29;2012;-96
2022/05/11 08:39:15;;;;;;;;;;;;;;;10.05;58.54;99252.44;4903844;29;2157;-96
2022/05/11 08:41:41;;;;;;;;;;;;;;;10.06;58.71;99250.56;4904425;29;2258;-96
2022/05/11 08:44:08;;;;;;;;;;;;;;;10.04;58.68;99253.50;4899225;29;2434;-96
2022/05/11 08:46:35;;;;;;;;;;;;;;;10.05;58.69;99257.00;4904007;29;2345;-96
2022/05/11 08:49:04;;;;;;;;;;;;;;;10.06;58.90;99253.25;4904663;29;3948;-96
2022/05/11 08:51:31;;;;;;;;;;;;;;;10.06;58.70;99256.78;4904846;29;2300;-96
2022/05/11 08:53:58;;;;;;;;;;;;;;;10.06;58.62;99254.09;4907924;29;2475;-96
2022/05/11 08:56:24;;;;;;;;;;;;;;;10.07;58.94;99242.25;4907303;29;2255;-96
2022/05/11 08:58:54;;;;;;;;;;;;;;;10.08;58.94;99243.06;4904961;29;2442;-96
2022/05/11 09:01:20;;;;;;;;;;;;;;;10.09;58.69;99242.84;4902771;29;2058;-95
2022/05/11 09:03:47;;;;;;;;;;;;;;;10.11;58.85;99235.31;4904168;29;2021;-96
2022/05/11 09:06:14;;;;;;;;;;;;;;;10.11;59.03;99239.88;4903273;29;2410;-96
2022/05/11 09:08:40;;;;;;;;;;;;;;;10.11;59.00;99237.19;4895125;29;4839;-96
2022/05/11 09:11:07;;;;;;;;;;;;;;;10.14;58.90;99236.69;4901432;29;1959;-96
2022/05/11 09:13:33;;;;;;;;;;;;;;;10.13;58.88;99230.50;4901935;29;2450;-96
2022/05/11 09:16:00;;;;;;;;;;;;;;;10.17;58.91;99230.81;4897058;29;2550;-96
2022/05/11 09:18:27;;;;;;;;;;;;;;;10.19;58.94;99234.06;4904434;29;2093;-96
2022/05/11 09:20:55;;;;;;;;;;;;;;;10.19;59.05;99232.19;4902253;29;2003;-96
2022/05/11 09:23:21;;;;;;;;;;;;;;;10.21;58.73;99211.25;4901159;29;4020;-96
2022/05/11 09:25:48;;;;;;;;;;;;;;;10.21;59.09;99223.88;4901351;29;2614;-96
2022/05/11 09:28:14;;;;;;;;;;;;;;;10.21;58.85;99205.88;4903003;29;2217;-96
2022/05/11 09:30:41;;;;;;;;;;;;;;;10.21;59.04;99210.44;4902526;29;2384;-96
2022/05/11 09:33:07;;;;;;;;;;;;;;;10.21;59.17;99218.50;4901575;29;5134;-96
2022/05/11 09:35:35;;;;;;;;;;;;;;;10.23;59.33;99217.19;4903269;29;3845;-96
2022/05/11 09:38:01;;;;;;;;;;;;;;;10.25;59.13;99225.00;4901565;29;2388;-96
2022/05/11 09:40:29;;;;;;;;;;;;;;;10.27;59.18;99212.16;4903165;29;2391;-96
2022/05/11 09:42:56;;;;;;;;;;;;;;;10.24;59.30;99204.56;4894920;29;4848;-96
2022/05/11 09:45:25;;;;;;;;;;;;;;;10.26;59.48;99221.25;4908836;28;2457;-96
2022/05/11 09:48:02;;;;;;;;;;;;;;;10.25;59.53;99200.78;4904750;29;4124;-96
2022/05/11 09:50:28;;;;;;;;;;;;;;;10.27;59.46;99198.69;4903382;29;2750;-96
2022/05/11 09:52:57;;;;;;;;;;;;;;;10.28;59.66;99197.63;4908681;29;2181;-96
2022/05/11 09:55:23;;;;;;;;;;;;;;;10.29;59.75;99196.53;4921896;29;2506;-96
2022/05/11 09:57:50;;;;;;;;;;;;;;;10.30;59.65;99192.00;4910377;29;2777;-96
2022/05/11 10:00:17;;;;;;;;;;;;;;;10.28;60.11;99192.25;4898489;29;4515;-96
2022/05/11 10:02:43;;;;;;;;;;;;;;;10.29;60.00;99204.63;4898637;29;3492;-96
2022/05/11 10:05:10;;;;;;;;;;;;;;;10.30;59.85;99192.00;4889719;29;4390;-96
2022/05/11 10:07:36;;;;;;;;;;;;;;;10.32;59.82;99190.66;4907557;29;1378;-96
2022/05/11 10:10:03;;;;;;;;;;;;;;;10.31;60.28;99201.69;4899518;29;1174;-96
2022/05/11 10:12:30;;;;;;;;;;;;;;;10.31;60.04;99193.63;4898804;29;1312;-95
2022/05/11 10:23:09;;;;;;;;;;;;;;;10.33;60.43;99189.63;4899114;29;4118;-96
2022/05/11 10:25:36;;;;;;;;;;;;;;;10.32;60.37;99184.47;4907266;29;2624;-96
2022/05/11 10:28:04;;;;;;;;;;;;;;;10.34;60.28;99191.25;4915462;29;2865;-96
2022/05/11 10:30:32;;;;;;;;;;;;;;;10.34;60.48;99188.53;4900194;29;1478;-96
2022/05/11 10:32:58;;;;;;;;;;;;;;;10.35;60.27;99182.13;4902153;29;4261;-96
2022/05/11 10:35:25;;;;;;;;;;;;;;;10.36;60.33;99185.63;4900119;29;3067;-96
2022/05/11 10:37:52;;;;;;;;;;;;;;;10.35;60.52;99179.44;4901425;29;2286;-96
2022/05/11 10:40:18;;;;;;;;;;;;;;;10.36;60.27;99166.78;4897689;29;1427;-96
2022/05/11 10:42:45;;;;;;;;;;;;;;;10.35;60.33;99171.34;4913668;29;2709;-96
2022/05/11 10:45:11;;;;;;;;;;;;;;;10.36;60.39;99166.78;4902301;29;4824;-96
2022/05/11 10:47:38;;;;;;;;;;;;;;;10.37;60.25;99168.41;4908967;29;2280;-96
2022/05/11 10:50:06;;;;;;;;;;;;;;;10.36;60.37;99154.13;4893300;29;4820;-96
2022/05/11 10:52:32;;;;;;;;;;;;;;;10.36;60.48;99148.75;4907326;29;2058;-96
2022/05/11 10:54:59;;;;;;;;;;;;;;;10.38;60.36;99140.41;4909759;29;1317;-96
2022/05/11 10:57:25;;;;;;;;;;;;;;;10.37;60.50;99144.19;4915437;29;1919;-96
2022/05/11 10:59:52;;;;;;;;;;;;;;;10.38;60.43;99137.72;4905910;29;2037;-96
2022/05/11 11:02:19;;;;;;;;;;;;;;;10.37;60.39;99126.13;4907256;29;1285;-96
2022/05/11 11:04:45;;;;;;;;;;;;;;;10.38;60.38;99126.94;4917231;29;2212;-96
2022/05/11 11:07:15;;;;;;;;;;;;;;;10.38;60.49;99140.41;4926040;29;1265;-96
2022/05/11 11:09:41;;;;;;;;;;;;;;;10.38;60.36;99135.88;4903573;29;4217;-96
2022/05/11 11:12:08;;;;;;;;;;;;;;;10.39;60.35;99131.28;4906558;29;1443;-96
2022/05/11 11:14:35;;;;;;;;;;;;;;;10.39;60.49;99118.63;4904620;29;2495;-96
2022/05/11 11:17:01;;;;;;;;;;;;;;;10.39;60.24;99125.91;4904230;29;3857;-96
2022/05/11 11:19:28;;;;;;;;;;;;;;;10.40;60.25;99122.94;4906851;29;2207;-96
2022/05/11 11:21:55;;;;;;;;;;;;;;;10.40;60.42;99138.28;4906777;29;1490;-96
2022/05/11 11:24:23;;;;;;;;;;;;;;;10.41;60.44;99123.75;4906893;29;2490;-96
2022/05/11 11:26:50;;;;;;;;;;;;;;;10.42;60.28;99120.00;4907634;29;1214;-96
2022/05/11 11:29:18;;;;;;;;;;;;;;;10.41;60.39;99121.91;4904646;29;2060;-96
2022/05/11 11:31:45;;;;;;;;;;;;;;;10.43;60.77;99121.63;4910114;29;2068;-96
2022/05/11 11:34:12;;;;;;;;;;;;;;;10.45;60.65;99116.81;4905216;29;2641;-96
2022/05/11 11:36:40;;;;;;;;;;;;;;;10.43;60.64;99111.66;4910960;29;1977;-96
2022/05/11 11:39:08;;;;;;;;;;;;;;;10.44;60.49;99102.53;4910466;29;1584;-96
2022/05/11 11:41:34;;;;;;;;;;;;;;;10.43;60.67;99100.91;4910331;29;1550;-96
2022/05/11 11:44:01;;;;;;;;;;;;;;;10.43;60.80;99097.41;4908055;29;1988;-96
2022/05/11 11:46:27;;;;;;;;;;;;;;;10.44;60.80;99093.63;4907112;29;1578;-96
2022/05/11 11:48:54;;;;;;;;;;;;;;;10.44;60.76;99102.53;4906158;29;2311;-96
2022/05/11 11:51:21;;;;;;;;;;;;;;;10.45;60.74;99095.28;4904616;29;1438;-96
2022/05/11 11:53:47;;;;;;;;;;;;;;;10.44;60.66;99091.78;4897563;29;2324;-96
2022/05/11 11:56:14;;;;;;;;;;;;;;;10.44;60.97;99099.84;4908173;29;1162;-96
2022/05/11 11:58:40;;;;;;;;;;;;;;;10.44;60.86;99099.84;4905329;29;2348;-96
2022/05/11 12:01:08;;;;;;;;;;;;;;;10.45;60.79;99093.41;4907357;29;1349;-96
2022/05/11 12:03:35;;;;;;;;;;;;;;;10.46;60.76;99089.63;4912552;29;2173;-96
2022/05/11 12:16:56;;;;;;;;;;;;;;;10.47;61.07;99085.09;4905442;29;2549;-96
2022/05/11 12:19:23;;;;;;;;;;;;;;;10.47;61.01;99077.00;4909962;29;1909;-96
2022/05/11 12:21:51;;;;;;;;;;;;;;;10.47;61.02;99074.31;4925046;29;1178;-96
2022/05/11 12:24:17;;;;;;;;;;;;;;;10.49;60.91;99079.44;4905022;29;4903;-96
2022/05/11 12:26:44;;;;;;;;;;;;;;;10.47;61.01;99074.31;4905119;29;1388;-96
2022/05/11 12:31:55;;;;;;;;;;;;;;;10.48;61.10;99073.25;4914656;29;1400;-96
2022/05/11 12:34:23;;;;;;;;;;;;;;;10.48;61.41;99072.44;4909126;29;2522;-96
2022/05/11 12:36:51;;;;;;;;;;;;;;;10.46;61.19;99068.09;4906622;29;1907;-96
2022/05/11 12:39:18;;;;;;;;;;;;;;;10.48;60.95;99059.78;4903565;29;1925;-96
2022/05/11 12:41:47;;;;;;;;;;;;;;;10.49;61.16;99071.34;4906697;29;1203;-96
2022/05/11 12:44:14;;;;;;;;;;;;;;;10.50;61.17;99078.34;4902862;29;2895;-96
2022/05/11 12:46:41;;;;;;;;;;;;;;;10.50;60.99;99072.97;4907949;29;1977;-96
2022/05/11 12:49:08;;;;;;;;;;;;;;;10.50;61.15;99067.59;4905440;29;2968;-96
2022/05/11 12:51:35;;;;;;;;;;;;;;;10.49;61.14;99061.41;4905959;29;1979;-96
2022/05/11 12:54:02;;;;;;;;;;;;;;;10.49;61.21;99056.00;4915219;29;2213;-96
2022/05/11 12:56:29;;;;;;;;;;;;;;;10.49;61.01;99041.75;4921000;29;1918;-96
2022/05/11 12:58:55;;;;;;;;;;;;;;;10.48;61.19;99043.63;4901114;29;2468;-96
2022/05/11 13:01:22;;;;;;;;;;;;;;;10.48;61.20;99043.63;4907796;29;1542;-96
2022/05/11 13:03:49;;;;;;;;;;;;;;;10.50;61.24;99035.28;4906684;29;1913;-96
2022/05/11 13:06:16;;;;;;;;;;;;;;;10.50;61.11;99032.59;4907111;29;2458;-96
2022/05/11 13:08:43;;;;;;;;;;;;;;;10.50;61.23;99032.59;4902422;29;2488;-96
2022/05/11 13:11:09;;;;;;;;;;;;;;;10.50;61.16;99035.28;4905942;29;1373;-96
2022/05/11 13:13:36;;;;;;;;;;;;;;;10.49;61.20;99030.97;4904086;29;1545;-96
2022/05/11 13:16:02;;;;;;;;;;;;;;;10.50;61.16;99029.91;4904218;29;2010;-96
2022/05/11 13:18:29;;;;;;;;;;;;;;;10.50;61.23;99021.81;4900535;29;2418;-96
2022/05/11 13:20:58;;;;;;;;;;;;;;;10.51;61.20;99008.13;4904180;29;1243;-96
2022/05/11 13:23:25;;;;;;;;;;;;;;;10.51;61.31;99012.69;4910196;29;1715;-96
2022/05/11 13:25:51;;;;;;;;;;;;;;;10.50;61.16;99001.13;4906764;29;4018;-96
2022/05/11 13:28:18;;;;;;;;;;;;;;;10.50;61.33;98997.59;4906560;29;2523;-96
2022/05/11 13:30:46;;;;;;;;;;;;;;;10.51;61.32;98996.56;4912602;29;1861;-96
2022/05/11 13:33:13;;;;;;;;;;;;;;;10.51;61.20;98996.56;4903907;29;4792;-96
2022/05/11 13:35:40;;;;;;;;;;;;;;;10.51;61.27;98985.78;4904375;29;1446;-96
2022/05/11 13:38:06;;;;;;;;;;;;;;;10.52;61.22;98982.00;4904110;29;1989;-96
2022/05/11 13:40:33;;;;;;;;;;;;;;;10.51;61.28;98967.75;4911790;29;1870;-96